createdAt,value
2017-06-14T00:00:18.899Z,0
2017-06-14T00:01:28.853Z,0
2017-06-14T00:02:39.120Z,0
2017-06-14T00:03:49.380Z,0
2017-06-14T00:04:59.648Z,0
2017-06-14T00:06:11.911Z,0
2017-06-14T00:07:22.170Z,0
2017-06-14T00:08:32.433Z,0
2017-06-14T00:09:42.694Z,0
2017-06-14T00:10:52.954Z,0
2017-06-14T00:12:02.901Z,0
2017-06-14T00:13:12.846Z,0
2017-06-14T00:14:23.107Z,0
2017-06-14T00:15:32.739Z,0
2017-06-14T00:16:43.001Z,0
2017-06-14T00:17:53.260Z,0
2017-06-14T00:19:03.517Z,0
2017-06-14T00:20:13.152Z,0
2017-06-14T00:21:23.414Z,0
2017-06-14T00:22:33.679Z,0
2017-06-14T00:23:43.634Z,0
2017-06-14T00:24:53.901Z,0
2017-06-14T00:26:04.174Z,0
2017-06-14T00:27:26.857Z,0
2017-06-14T00:28:37.123Z,0
2017-06-14T00:29:47.071Z,4
2017-06-14T00:30:57.020Z,4
2017-06-14T00:32:07.282Z,4
2017-06-14T00:33:17.547Z,4
2017-06-14T00:34:29.814Z,4
2017-06-14T00:35:39.767Z,0
2017-06-14T00:36:49.712Z,0
2017-06-14T00:37:59.968Z,0
2017-06-14T00:39:10.231Z,0
2017-06-14T00:40:20.492Z,0
2017-06-14T00:41:30.757Z,4
2017-06-14T00:42:41.016Z,4
2017-06-14T00:43:50.959Z,4
2017-06-14T00:45:01.224Z,4
2017-06-14T00:46:11.165Z,0
2017-06-14T00:47:21.449Z,0
2017-06-14T00:48:31.712Z,4
2017-06-14T00:49:41.966Z,4
2017-06-14T00:50:51.915Z,4
2017-06-14T00:52:02.173Z,4
2017-06-14T00:53:12.428Z,4
2017-06-14T00:54:22.059Z,4
2017-06-14T00:55:32.003Z,4
2017-06-14T00:56:42.264Z,4
2017-06-14T00:57:52.526Z,4
2017-06-14T00:59:02.786Z,4
2017-06-14T01:00:12.729Z,8
2017-06-14T01:01:22.990Z,8
2017-06-14T01:02:32.629Z,8
2017-06-14T01:03:42.891Z,8
2017-06-14T01:04:53.154Z,8
2017-06-14T01:06:03.098Z,12
2017-06-14T01:07:13.371Z,12
2017-06-14T01:08:23.635Z,8
2017-06-14T01:09:33.266Z,12
2017-06-14T01:10:43.523Z,12
2017-06-14T01:11:53.780Z,12
2017-06-14T01:13:03.724Z,12
2017-06-14T01:14:13.671Z,16
2017-06-14T01:15:23.938Z,20
2017-06-14T01:16:34.201Z,20
2017-06-14T01:17:44.461Z,20
2017-06-14T01:18:54.793Z,20
2017-06-14T01:20:05.054Z,24
2017-06-14T01:21:15.309Z,24
2017-06-14T01:22:24.945Z,28
2017-06-14T01:23:34.894Z,28
2017-06-14T01:24:45.158Z,36
2017-06-14T01:25:55.419Z,36
2017-06-14T01:27:05.364Z,40
2017-06-14T01:28:15.627Z,40
2017-06-14T01:29:25.890Z,48
2017-06-14T01:30:36.148Z,52
2017-06-14T01:31:46.097Z,52
2017-06-14T01:32:56.041Z,60
2017-06-14T01:34:06.302Z,64
2017-06-14T01:35:16.575Z,68
2017-06-14T01:36:26.837Z,72
2017-06-14T01:37:37.098Z,76
2017-06-14T01:38:47.359Z,76
2017-06-14T01:39:57.621Z,84
2017-06-14T01:41:07.880Z,84
2017-06-14T01:42:17.833Z,92
2017-06-14T01:43:27.776Z,96
2017-06-14T01:44:38.036Z,104
2017-06-14T01:45:47.988Z,108
2017-06-14T01:46:57.939Z,116
2017-06-14T01:48:08.200Z,120
2017-06-14T01:49:18.145Z,128
2017-06-14T01:50:27.777Z,136
2017-06-14T01:51:38.036Z,144
2017-06-14T01:52:48.293Z,152
2017-06-14T01:53:58.556Z,160
2017-06-14T01:55:08.504Z,168
2017-06-14T01:56:18.765Z,180
2017-06-14T01:57:28.721Z,188
2017-06-14T01:58:38.981Z,200
2017-06-14T01:59:49.245Z,208
2017-06-14T02:00:59.502Z,216
2017-06-14T02:02:09.448Z,228
2017-06-14T02:03:19.706Z,240
2017-06-14T02:04:29.334Z,252
2017-06-14T02:05:39.594Z,268
2017-06-14T02:06:49.896Z,280
2017-06-14T02:08:00.155Z,296
2017-06-14T02:09:10.417Z,312
2017-06-14T02:10:20.681Z,324
2017-06-14T02:11:30.947Z,340
2017-06-14T02:12:41.207Z,356
2017-06-14T02:13:51.472Z,364
2017-06-14T02:15:01.731Z,368
2017-06-14T02:16:11.997Z,376
2017-06-14T02:17:22.264Z,384
2017-06-14T02:18:31.899Z,392
2017-06-14T02:19:41.537Z,408
2017-06-14T02:20:51.815Z,428
2017-06-14T02:22:01.768Z,448
2017-06-14T02:23:11.715Z,476
2017-06-14T02:24:21.658Z,500
2017-06-14T02:25:31.921Z,528
2017-06-14T02:26:41.865Z,556
2017-06-14T02:27:51.812Z,580
2017-06-14T02:29:02.073Z,600
2017-06-14T02:30:12.342Z,620
2017-06-14T02:31:22.297Z,636
2017-06-14T02:32:32.561Z,652
2017-06-14T02:33:42.829Z,664
2017-06-14T02:34:53.095Z,688
2017-06-14T02:36:03.047Z,716
2017-06-14T02:37:12.999Z,740
2017-06-14T02:38:22.947Z,756
2017-06-14T02:39:33.210Z,764
2017-06-14T02:40:43.469Z,772
2017-06-14T02:41:53.420Z,780
2017-06-14T02:43:03.366Z,792
2017-06-14T02:44:13.659Z,816
2017-06-14T02:45:23.922Z,836
2017-06-14T02:46:34.187Z,860
2017-06-14T02:47:44.438Z,876
2017-06-14T02:48:54.389Z,888
2017-06-14T02:50:04.344Z,904
2017-06-14T02:51:14.604Z,908
2017-06-14T02:52:24.874Z,920
2017-06-14T02:53:35.131Z,936
2017-06-14T02:54:45.397Z,948
2017-06-14T02:55:55.031Z,968
2017-06-14T02:57:05.294Z,996
2017-06-14T02:58:15.554Z,1028
2017-06-14T02:59:25.183Z,1052
2017-06-14T03:00:35.451Z,1080
2017-06-14T03:01:45.719Z,1104
2017-06-14T03:02:55.666Z,1136
2017-06-14T03:04:05.931Z,1172
2017-06-14T03:05:16.197Z,1220
2017-06-14T03:06:26.149Z,1268
2017-06-14T03:07:36.097Z,1316
2017-06-14T03:08:46.355Z,1376
2017-06-14T03:09:56.618Z,1436
2017-06-14T03:11:06.913Z,1504
2017-06-14T03:12:17.174Z,1564
2017-06-14T03:13:27.121Z,1620
2017-06-14T03:14:37.104Z,1640
2017-06-14T03:15:47.364Z,1640
2017-06-14T03:16:57.625Z,1628
2017-06-14T03:18:07.569Z,1632
2017-06-14T03:19:17.829Z,1644
2017-06-14T03:20:27.773Z,1672
2017-06-14T03:21:38.032Z,1716
2017-06-14T03:22:47.984Z,1764
2017-06-14T03:23:58.328Z,1812
2017-06-14T03:25:08.587Z,1848
2017-06-14T03:26:18.843Z,1888
2017-06-14T03:27:28.786Z,1916
2017-06-14T03:28:39.045Z,1932
2017-06-14T03:29:49.304Z,1940
2017-06-14T03:30:59.574Z,1960
2017-06-14T03:32:09.519Z,1976
2017-06-14T03:33:19.479Z,1984
2017-06-14T03:34:29.740Z,2008
2017-06-14T03:35:39.706Z,2056
2017-06-14T03:36:49.963Z,2120
2017-06-14T03:38:00.223Z,2168
2017-06-14T03:39:10.173Z,2196
2017-06-14T03:40:20.317Z,2208
2017-06-14T03:41:30.580Z,2228
2017-06-14T03:42:40.832Z,2260
2017-06-14T03:43:50.781Z,2296
2017-06-14T03:45:01.035Z,2316
2017-06-14T03:46:11.010Z,2344
2017-06-14T03:47:21.269Z,2388
2017-06-14T03:48:31.531Z,2444
2017-06-14T03:49:41.792Z,2484
2017-06-14T03:50:52.052Z,2516
2017-06-14T03:52:02.315Z,2564
2017-06-14T03:53:12.266Z,2616
2017-06-14T03:54:22.526Z,2652
2017-06-14T03:55:32.787Z,2664
2017-06-14T03:56:43.045Z,2656
2017-06-14T03:57:52.995Z,2660
2017-06-14T03:59:03.257Z,2664
2017-06-14T04:00:13.207Z,2676
2017-06-14T04:01:23.154Z,2700
2017-06-14T04:02:33.409Z,2732
2017-06-14T04:03:43.667Z,2724
2017-06-14T04:04:53.620Z,2688
2017-06-14T04:06:03.907Z,2672
2017-06-14T04:07:14.171Z,2664
2017-06-14T04:08:24.432Z,2664
2017-06-14T04:09:34.692Z,2692
2017-06-14T04:10:44.959Z,2744
2017-06-14T04:11:55.215Z,2812
2017-06-14T04:13:05.509Z,2880
2017-06-14T04:14:15.777Z,2936
2017-06-14T04:15:25.726Z,2980
2017-06-14T04:16:35.986Z,3024
2017-06-14T04:17:46.253Z,3076
2017-06-14T04:18:56.516Z,3124
2017-06-14T04:20:06.775Z,3184
2017-06-14T04:21:17.044Z,3236
2017-06-14T04:22:26.995Z,3316
2017-06-14T04:23:36.633Z,3404
2017-06-14T04:24:46.895Z,3444
2017-06-14T04:25:57.156Z,3432
2017-06-14T04:27:07.415Z,3412
2017-06-14T04:28:17.364Z,3440
2017-06-14T04:29:27.622Z,3508
2017-06-14T04:30:37.569Z,3580
2017-06-14T04:31:47.831Z,3608
2017-06-14T04:32:58.093Z,3600
2017-06-14T04:34:08.356Z,3576
2017-06-14T04:35:18.620Z,3580
2017-06-14T04:36:28.887Z,3584
2017-06-14T04:37:39.146Z,3592
2017-06-14T04:38:49.411Z,3608
2017-06-14T04:39:59.671Z,3648
2017-06-14T04:41:09.307Z,3708
2017-06-14T04:42:18.941Z,3776
2017-06-14T04:43:29.206Z,3812
2017-06-14T04:44:39.467Z,3804
2017-06-14T04:45:49.107Z,3768
2017-06-14T04:46:59.376Z,3752
2017-06-14T04:48:09.648Z,3800
2017-06-14T04:49:19.602Z,3896
2017-06-14T04:50:29.781Z,4000
2017-06-14T04:51:40.059Z,4036
2017-06-14T04:52:50.222Z,3992
2017-06-14T04:54:00.490Z,3920
2017-06-14T04:55:10.766Z,3844
2017-06-14T04:56:20.715Z,3788
2017-06-14T04:57:30.658Z,3764
2017-06-14T04:58:40.288Z,3772
2017-06-14T04:59:50.551Z,3804
2017-06-14T05:01:00.814Z,3848
2017-06-14T05:02:16.240Z,3912
2017-06-14T05:03:26.540Z,4004
2017-06-14T05:04:36.802Z,4132
2017-06-14T05:05:46.756Z,4292
2017-06-14T05:06:57.021Z,4392
2017-06-14T05:08:07.279Z,4404
2017-06-14T05:09:17.540Z,4412
2017-06-14T05:10:27.805Z,4492
2017-06-14T05:11:37.759Z,4632
2017-06-14T05:12:50.088Z,4776
2017-06-14T05:14:00.345Z,4836
2017-06-14T05:15:10.299Z,4904
2017-06-14T05:16:20.563Z,4748
2017-06-14T05:17:30.834Z,4720
2017-06-14T05:18:41.100Z,4796
2017-06-14T05:19:51.364Z,4840
2017-06-14T05:21:01.639Z,4936
2017-06-14T05:22:11.911Z,5108
2017-06-14T05:23:21.875Z,5296
2017-06-14T05:24:32.135Z,5460
2017-06-14T05:25:42.398Z,5616
2017-06-14T05:26:52.034Z,5776
2017-06-14T05:28:02.023Z,5944
2017-06-14T05:29:12.292Z,6080
2017-06-14T05:30:22.547Z,6156
2017-06-14T05:31:32.810Z,6160
2017-06-14T05:32:42.760Z,6240
2017-06-14T05:33:53.021Z,6368
2017-06-14T05:35:02.651Z,6400
2017-06-14T05:36:11.973Z,6316
2017-06-14T05:37:22.233Z,6232
2017-06-14T05:38:32.507Z,6140
2017-06-14T05:39:42.766Z,6076
2017-06-14T05:40:53.028Z,6032
2017-06-14T05:42:03.290Z,5964
2017-06-14T05:43:13.555Z,5864
2017-06-14T05:44:23.502Z,5744
2017-06-14T05:45:33.765Z,5720
2017-06-14T05:46:44.025Z,5700
2017-06-14T05:47:54.286Z,5744
2017-06-14T05:49:04.548Z,5904
2017-06-14T05:50:14.814Z,6148
2017-06-14T05:51:25.074Z,6380
2017-06-14T05:52:35.348Z,6596
2017-06-14T05:53:45.625Z,6868
2017-06-14T05:54:55.899Z,7020
2017-06-14T05:56:06.160Z,7032
2017-06-14T05:57:16.443Z,7104
2017-06-14T05:58:26.705Z,7204
2017-06-14T05:59:36.973Z,7172
2017-06-14T06:00:47.283Z,7304
2017-06-14T06:01:57.548Z,7456
2017-06-14T06:03:07.512Z,7504
2017-06-14T06:04:17.785Z,7600
2017-06-14T06:05:28.045Z,7592
2017-06-14T06:06:38.315Z,7560
2017-06-14T06:07:48.578Z,7480
2017-06-14T06:08:58.523Z,7284
2017-06-14T06:10:08.474Z,7036
2017-06-14T06:11:18.733Z,6920
2017-06-14T06:12:28.996Z,6948
2017-06-14T06:13:39.265Z,7084
2017-06-14T06:14:49.535Z,7244
2017-06-14T06:15:59.803Z,7364
2017-06-14T06:17:09.805Z,7580
2017-06-14T06:18:19.443Z,7676
2017-06-14T06:19:29.719Z,7688
2017-06-14T06:20:39.983Z,7684
2017-06-14T06:21:49.933Z,7800
2017-06-14T06:23:00.200Z,7904
2017-06-14T06:24:10.153Z,8188
2017-06-14T06:25:20.420Z,8368
2017-06-14T06:26:30.690Z,8528
2017-06-14T06:27:40.642Z,8524
2017-06-14T06:28:50.909Z,8528
2017-06-14T06:30:01.170Z,8392
2017-06-14T06:31:11.443Z,8368
2017-06-14T06:32:21.716Z,8604
2017-06-14T06:33:31.987Z,8528
2017-06-14T06:34:42.255Z,8432
2017-06-14T06:35:52.091Z,8272
2017-06-14T06:37:02.357Z,7884
2017-06-14T06:38:12.627Z,7120
2017-06-14T06:39:22.892Z,6440
2017-06-14T06:40:33.158Z,6072
2017-06-14T06:41:43.120Z,5972
2017-06-14T06:42:53.392Z,6044
2017-06-14T06:44:03.656Z,6236
2017-06-14T06:45:13.931Z,6236
2017-06-14T06:46:24.196Z,6084
2017-06-14T06:47:34.457Z,5944
2017-06-14T06:48:44.724Z,6068
2017-06-14T06:49:54.671Z,6328
2017-06-14T06:51:04.625Z,6948
2017-06-14T06:52:13.946Z,7148
2017-06-14T06:53:24.213Z,7176
2017-06-14T06:54:34.475Z,6948
2017-06-14T06:55:44.738Z,6952
2017-06-14T06:56:54.707Z,7228
2017-06-14T06:58:04.978Z,7440
2017-06-14T06:59:14.937Z,7856
2017-06-14T07:00:25.405Z,8228
2017-06-14T07:01:35.356Z,8472
2017-06-14T07:02:45.618Z,8716
2017-06-14T07:03:55.566Z,8832
2017-06-14T07:05:05.522Z,9056
2017-06-14T07:06:15.780Z,9308
2017-06-14T07:07:26.036Z,9428
2017-06-14T07:08:36.304Z,9500
2017-06-14T07:09:46.576Z,9624
2017-06-14T07:10:56.245Z,9916
2017-06-14T07:12:05.881Z,10384
2017-06-14T07:13:16.153Z,10796
2017-06-14T07:14:26.417Z,11160
2017-06-14T07:15:36.684Z,11452
2017-06-14T07:16:46.952Z,11640
2017-06-14T07:17:57.220Z,11604
2017-06-14T07:19:07.173Z,11660
2017-06-14T07:20:17.444Z,11568
2017-06-14T07:21:27.715Z,11384
2017-06-14T07:22:37.978Z,11100
2017-06-14T07:23:48.248Z,11248
2017-06-14T07:24:58.206Z,11432
2017-06-14T07:26:08.467Z,11552
2017-06-14T07:27:18.740Z,11608
2017-06-14T07:28:29.005Z,11724
2017-06-14T07:29:38.949Z,11900
2017-06-14T07:30:48.905Z,12092
2017-06-14T07:31:58.857Z,12064
2017-06-14T07:33:09.123Z,11840
2017-06-14T07:34:19.399Z,11460
2017-06-14T07:35:29.668Z,11316
2017-06-14T07:36:39.948Z,11312
2017-06-14T07:37:50.210Z,11168
2017-06-14T07:39:00.166Z,10980
2017-06-14T07:40:09.802Z,10996
2017-06-14T07:41:20.072Z,11044
2017-06-14T07:42:30.386Z,11132
2017-06-14T07:43:40.654Z,11076
2017-06-14T07:44:50.917Z,10952
2017-06-14T07:46:00.871Z,10872
2017-06-14T07:47:10.826Z,11000
2017-06-14T07:48:20.485Z,11372
2017-06-14T07:49:30.754Z,11688
2017-06-14T07:50:41.022Z,11704
2017-06-14T07:51:50.974Z,11736
2017-06-14T07:53:00.924Z,11756
2017-06-14T07:54:10.556Z,11692
2017-06-14T07:55:20.821Z,11652
2017-06-14T07:56:31.088Z,11768
2017-06-14T07:57:41.353Z,12060
2017-06-14T07:58:51.617Z,12452
2017-06-14T08:00:01.883Z,12828
2017-06-14T08:01:11.839Z,13236
2017-06-14T08:02:22.109Z,13364
2017-06-14T08:03:32.065Z,13336
2017-06-14T08:04:41.706Z,13256
2017-06-14T08:05:51.976Z,13112
2017-06-14T08:07:01.931Z,13044
2017-06-14T08:08:11.570Z,12940
2017-06-14T08:09:21.837Z,12988
2017-06-14T08:10:32.128Z,13148
2017-06-14T08:11:42.077Z,12924
2017-06-14T08:12:52.346Z,12732
2017-06-14T08:14:02.621Z,12516
2017-06-14T08:15:12.579Z,12356
2017-06-14T08:16:22.867Z,12240
2017-06-14T08:17:33.140Z,12160
2017-06-14T08:18:43.410Z,12092
2017-06-14T08:19:53.049Z,12024
2017-06-14T08:21:03.320Z,12044
2017-06-14T08:22:13.586Z,12280
2017-06-14T08:23:23.532Z,12624
2017-06-14T08:24:33.807Z,12996
2017-06-14T08:25:43.756Z,13404
2017-06-14T08:26:54.029Z,13932
2017-06-14T08:28:03.981Z,14368
2017-06-14T08:29:14.250Z,14692
2017-06-14T08:30:24.515Z,14916
2017-06-14T08:31:34.783Z,14988
2017-06-14T08:32:44.738Z,15056
2017-06-14T08:33:55.035Z,15008
2017-06-14T08:35:04.990Z,14796
2017-06-14T08:36:14.948Z,14524
2017-06-14T08:37:25.222Z,14116
2017-06-14T08:38:35.494Z,13716
2017-06-14T08:39:45.135Z,13396
2017-06-14T08:40:55.403Z,13080
2017-06-14T08:42:05.672Z,12772
2017-06-14T08:43:15.619Z,12432
2017-06-14T08:44:25.576Z,12220
2017-06-14T08:45:35.537Z,12040
2017-06-14T08:46:45.802Z,11800
2017-06-14T08:47:56.072Z,11616
2017-06-14T08:49:06.339Z,11468
2017-06-14T08:50:16.630Z,11384
2017-06-14T08:51:26.899Z,11176
2017-06-14T08:52:36.855Z,11004
2017-06-14T08:53:47.132Z,10892
2017-06-14T08:54:57.397Z,10984
2017-06-14T08:56:07.357Z,11200
2017-06-14T08:57:16.993Z,11404
2017-06-14T08:58:26.954Z,11888
2017-06-14T08:59:37.230Z,11940
2017-06-14T09:00:47.499Z,12144
2017-06-14T09:01:57.773Z,12768
2017-06-14T09:03:08.245Z,12848
2017-06-14T09:04:18.196Z,12872
2017-06-14T09:05:28.463Z,13120
2017-06-14T09:06:38.732Z,13864
2017-06-14T09:07:48.686Z,14184
2017-06-14T09:08:59.005Z,14856
2017-06-14T09:10:09.287Z,15380
2017-06-14T09:11:19.244Z,15728
2017-06-14T09:12:29.518Z,16288
2017-06-14T09:13:39.797Z,16448
2017-06-14T09:14:49.753Z,16416
2017-06-14T09:15:59.706Z,16320
2017-06-14T09:17:09.975Z,15968
2017-06-14T09:18:20.245Z,15344
2017-06-14T09:19:30.539Z,14736
2017-06-14T09:20:40.816Z,14772
2017-06-14T09:21:50.769Z,13912
2017-06-14T09:23:01.039Z,13760
2017-06-14T09:24:11.303Z,13584
2017-06-14T09:25:21.570Z,13272
2017-06-14T09:26:31.839Z,12948
2017-06-14T09:27:41.805Z,12728
2017-06-14T09:28:52.084Z,12572
2017-06-14T09:30:02.378Z,12460
2017-06-14T09:31:12.646Z,12220
2017-06-14T09:32:22.917Z,12068
2017-06-14T09:33:33.222Z,11820
2017-06-14T09:34:43.491Z,11608
2017-06-14T09:35:53.753Z,11328
2017-06-14T09:37:04.031Z,11112
2017-06-14T09:38:14.314Z,10924
2017-06-14T09:39:24.584Z,10696
2017-06-14T09:40:34.870Z,10300
2017-06-14T09:41:45.148Z,10100
2017-06-14T09:42:54.804Z,10212
2017-06-14T09:44:05.075Z,10140
2017-06-14T09:45:15.342Z,10180
2017-06-14T09:46:25.608Z,10572
2017-06-14T09:47:35.876Z,11140
2017-06-14T09:48:46.150Z,11572
2017-06-14T09:49:56.424Z,11632
2017-06-14T09:51:06.704Z,11700
2017-06-14T09:52:16.969Z,11620
2017-06-14T09:53:26.926Z,11868
2017-06-14T09:54:37.192Z,11576
2017-06-14T09:55:47.459Z,11940
2017-06-14T09:56:57.740Z,12196
2017-06-14T09:58:08.010Z,12456
2017-06-14T09:59:18.280Z,12148
2017-06-14T10:00:28.234Z,12064
2017-06-14T10:01:38.513Z,12500
2017-06-14T10:02:48.482Z,12556
2017-06-14T10:03:58.749Z,12844
2017-06-14T10:05:09.015Z,13312
2017-06-14T10:06:19.281Z,13572
2017-06-14T10:07:29.556Z,13508
2017-06-14T10:08:39.511Z,13092
2017-06-14T10:09:49.781Z,12808
2017-06-14T10:11:00.059Z,11892
2017-06-14T10:12:10.549Z,11620
2017-06-14T10:13:20.573Z,11400
2017-06-14T10:14:30.894Z,10952
2017-06-14T10:15:41.180Z,10648
2017-06-14T10:16:51.447Z,10596
2017-06-14T10:18:01.397Z,10684
2017-06-14T10:19:11.665Z,11376
2017-06-14T10:20:21.619Z,11400
2017-06-14T10:21:31.590Z,10536
2017-06-14T10:22:41.861Z,9548
2017-06-14T10:23:52.135Z,8960
2017-06-14T10:25:02.094Z,8744
2017-06-14T10:26:12.051Z,8980
2017-06-14T10:27:22.324Z,9280
2017-06-14T10:28:32.293Z,9636
2017-06-14T10:29:42.560Z,9536
2017-06-14T10:30:52.836Z,9208
2017-06-14T10:32:02.835Z,8964
2017-06-14T10:33:12.786Z,8740
2017-06-14T10:34:23.059Z,8448
2017-06-14T10:35:33.328Z,8424
2017-06-14T10:36:43.281Z,8340
2017-06-14T10:37:53.232Z,8312
2017-06-14T10:39:03.186Z,8108
2017-06-14T10:40:13.141Z,7904
2017-06-14T10:41:23.416Z,7600
2017-06-14T10:42:33.058Z,7276
2017-06-14T10:43:43.014Z,7132
2017-06-14T10:44:52.971Z,6884
2017-06-14T10:46:02.939Z,6680
2017-06-14T10:47:13.203Z,6488
2017-06-14T10:48:23.520Z,6256
2017-06-14T10:49:33.801Z,6148
2017-06-14T10:50:43.754Z,6092
2017-06-14T10:51:53.402Z,6244
2017-06-14T10:53:03.665Z,6320
2017-06-14T10:54:13.646Z,6160
2017-06-14T10:55:23.948Z,6112
2017-06-14T10:56:34.222Z,6140
2017-06-14T10:57:44.489Z,6256
2017-06-14T10:58:54.130Z,6428
2017-06-14T11:00:04.393Z,6700
2017-06-14T11:01:14.341Z,6672
2017-06-14T11:02:23.981Z,6784
2017-06-14T11:03:34.250Z,7004
2017-06-14T11:04:44.514Z,7160
2017-06-14T11:05:54.780Z,7276
2017-06-14T11:07:05.050Z,7412
2017-06-14T11:08:15.320Z,7600
2017-06-14T11:09:25.586Z,7660
2017-06-14T11:10:35.862Z,7504
2017-06-14T11:11:46.129Z,7372
2017-06-14T11:12:56.087Z,7208
2017-06-14T11:14:06.355Z,6976
2017-06-14T11:15:16.308Z,7036
2017-06-14T11:16:26.269Z,7140
2017-06-14T11:17:36.535Z,7552
2017-06-14T11:18:46.798Z,7860
2017-06-14T11:19:56.759Z,8000
2017-06-14T11:21:06.091Z,8028
2017-06-14T11:22:16.049Z,8160
2017-06-14T11:23:26.320Z,8380
2017-06-14T11:24:36.588Z,8756
2017-06-14T11:25:46.860Z,9260
2017-06-14T11:26:56.496Z,9972
2017-06-14T11:28:06.764Z,10600
2017-06-14T11:29:16.404Z,11044
2017-06-14T11:30:26.671Z,11604
2017-06-14T11:31:36.938Z,12076
2017-06-14T11:32:47.211Z,12420
2017-06-14T11:33:57.478Z,12936
2017-06-14T11:35:07.755Z,13688
2017-06-14T11:36:18.021Z,14920
2017-06-14T11:37:28.287Z,17696
2017-06-14T11:38:38.583Z,45568
2017-06-14T11:39:48.854Z,95104
2017-06-14T11:40:59.125Z,100256
2017-06-14T11:42:09.400Z,98432
2017-06-14T11:43:19.044Z,104416
2017-06-14T11:44:29.321Z,104800
2017-06-14T11:45:39.592Z,106592
2017-06-14T11:46:49.864Z,42208
2017-06-14T11:47:59.850Z,42336
2017-06-14T11:49:10.122Z,81536
2017-06-14T11:50:20.398Z,49472
2017-06-14T11:51:30.717Z,95264
2017-06-14T11:52:40.707Z,96800
2017-06-14T11:53:50.672Z,71456
2017-06-14T11:55:00.634Z,20544
2017-06-14T11:56:10.639Z,15400
2017-06-14T11:57:20.602Z,13344
2017-06-14T11:58:30.883Z,12008
2017-06-14T11:59:41.162Z,12900
2017-06-14T12:00:51.127Z,12048
2017-06-14T12:02:01.398Z,11080
2017-06-14T12:03:11.367Z,10032
2017-06-14T12:04:21.024Z,9048
2017-06-14T12:05:31.298Z,8660
2017-06-14T12:06:41.256Z,8268
2017-06-14T12:07:51.533Z,7956
2017-06-14T12:09:01.491Z,7732
2017-06-14T12:10:11.775Z,7748
2017-06-14T12:11:22.052Z,7688
2017-06-14T12:12:32.329Z,7632
2017-06-14T12:13:42.291Z,7616
2017-06-14T12:14:52.567Z,7568
2017-06-14T12:16:02.837Z,7460
2017-06-14T12:17:12.801Z,7380
2017-06-14T12:18:23.079Z,7412
2017-06-14T12:19:33.044Z,7516
2017-06-14T12:20:43.317Z,7836
2017-06-14T12:21:53.592Z,8236
2017-06-14T12:23:03.552Z,8740
2017-06-14T12:24:13.513Z,9292
2017-06-14T12:25:23.779Z,9868
2017-06-14T12:26:33.422Z,10356
2017-06-14T12:27:43.064Z,10820
2017-06-14T12:28:52.712Z,11284
2017-06-14T12:30:02.977Z,11800
2017-06-14T12:31:13.242Z,12288
2017-06-14T12:32:23.515Z,12764
2017-06-14T12:33:33.154Z,13292
2017-06-14T12:34:43.117Z,13960
2017-06-14T12:35:53.389Z,15052
2017-06-14T12:37:03.349Z,16672
2017-06-14T12:38:13.621Z,17792
2017-06-14T12:39:23.881Z,19072
2017-06-14T12:40:34.144Z,20672
2017-06-14T12:41:44.093Z,22432
2017-06-14T12:42:54.044Z,19296
2017-06-14T12:44:03.995Z,16088
2017-06-14T12:45:14.265Z,15012
2017-06-14T12:46:24.539Z,15236
2017-06-14T12:47:34.808Z,17408
2017-06-14T12:48:45.074Z,23232
2017-06-14T12:49:55.030Z,38304
2017-06-14T12:51:05.295Z,26816
2017-06-14T12:52:15.572Z,22496
2017-06-14T12:53:25.522Z,21600
2017-06-14T12:54:35.786Z,24832
2017-06-14T12:55:45.740Z,25440
2017-06-14T12:56:55.693Z,28352
2017-06-14T12:58:05.655Z,45984
2017-06-14T12:59:15.937Z,42720
2017-06-14T13:00:26.216Z,85280
2017-06-14T13:01:36.167Z,59040
2017-06-14T13:02:45.491Z,108288
2017-06-14T13:03:55.439Z,112512
2017-06-14T13:05:05.712Z,102496
2017-06-14T13:06:15.987Z,102080
2017-06-14T13:07:26.260Z,105984
2017-06-14T13:08:36.533Z,108160
2017-06-14T13:09:46.800Z,103136
2017-06-14T13:10:57.071Z,102112
2017-06-14T13:12:07.036Z,100064
2017-06-14T13:13:17.311Z,97856
2017-06-14T13:14:27.599Z,96800
2017-06-14T13:15:37.872Z,96224
2017-06-14T13:16:48.150Z,106176
2017-06-14T13:17:58.432Z,103136
2017-06-14T13:19:08.407Z,80608
2017-06-14T13:20:18.693Z,75264
2017-06-14T13:21:28.972Z,50528
2017-06-14T13:22:39.255Z,79264
2017-06-14T13:23:49.532Z,99072
2017-06-14T13:24:59.810Z,99872
2017-06-14T13:26:10.087Z,104064
2017-06-14T13:27:19.747Z,32736
2017-06-14T13:28:30.030Z,41184
2017-06-14T13:29:40.004Z,22336
2017-06-14T13:30:49.970Z,22304
2017-06-14T13:32:02.305Z,29760
2017-06-14T13:33:12.588Z,87936
2017-06-14T13:34:22.866Z,62304
2017-06-14T13:35:33.142Z,110592
2017-06-14T13:36:43.427Z,91552
2017-06-14T13:37:53.389Z,109184
2017-06-14T13:39:03.352Z,86592
2017-06-14T13:40:13.042Z,51136
2017-06-14T13:41:23.007Z,28864
2017-06-14T13:42:33.283Z,49920
2017-06-14T13:43:43.565Z,24704
2017-06-14T13:44:53.843Z,70464
2017-06-14T13:46:04.120Z,16448
2017-06-14T13:47:14.404Z,12816
2017-06-14T13:48:24.366Z,12260
2017-06-14T13:49:34.645Z,22816
2017-06-14T13:50:44.921Z,9688
2017-06-14T13:51:55.204Z,9604
2017-06-14T13:53:05.176Z,9576
2017-06-14T13:54:15.492Z,10108
2017-06-14T13:55:25.773Z,10696
2017-06-14T13:56:36.052Z,10684
2017-06-14T13:57:46.326Z,11448
2017-06-14T13:58:56.606Z,12136
2017-06-14T14:00:06.882Z,12948
2017-06-14T14:01:16.531Z,13120
2017-06-14T14:02:26.505Z,12360
2017-06-14T14:03:36.780Z,12160
2017-06-14T14:04:46.437Z,12144
2017-06-14T14:05:56.714Z,12044
2017-06-14T14:07:06.994Z,12044
2017-06-14T14:08:17.268Z,12168
2017-06-14T14:09:27.229Z,12264
2017-06-14T14:10:37.192Z,12284
2017-06-14T14:11:47.470Z,12164
2017-06-14T14:12:57.737Z,11912
2017-06-14T14:14:08.007Z,11636
2017-06-14T14:15:18.278Z,11720
2017-06-14T14:16:28.236Z,12048
2017-06-14T14:17:38.505Z,12140
2017-06-14T14:18:48.780Z,12208
2017-06-14T14:19:58.428Z,12268
2017-06-14T14:21:08.387Z,12184
2017-06-14T14:22:18.352Z,12444
2017-06-14T14:23:28.624Z,12728
2017-06-14T14:24:38.902Z,12816
2017-06-14T14:25:49.175Z,12988
2017-06-14T14:26:59.454Z,13172
2017-06-14T14:28:09.415Z,13296
2017-06-14T14:29:19.708Z,13508
2017-06-14T14:30:29.977Z,13840
2017-06-14T14:31:40.251Z,14220
2017-06-14T14:32:50.529Z,14984
2017-06-14T14:34:00.815Z,16992
2017-06-14T14:35:10.774Z,18208
2017-06-14T14:36:21.046Z,17536
2017-06-14T14:37:31.320Z,17696
2017-06-14T14:38:41.276Z,17440
2017-06-14T14:39:51.270Z,18240
2017-06-14T14:41:01.545Z,27264
2017-06-14T14:42:11.217Z,60832
2017-06-14T14:43:21.484Z,53184
2017-06-14T14:44:31.753Z,73504
2017-06-14T14:45:42.025Z,41376
2017-06-14T14:46:52.294Z,51936
2017-06-14T14:48:02.257Z,48448
2017-06-14T14:49:12.532Z,94176
2017-06-14T14:50:22.809Z,107680
2017-06-14T14:51:33.081Z,83104
2017-06-14T14:52:43.044Z,54720
2017-06-14T14:53:53.005Z,30112
2017-06-14T14:55:02.967Z,30848
2017-06-14T14:56:13.242Z,27840
2017-06-14T14:57:23.210Z,25376
2017-06-14T14:58:33.492Z,23296
2017-06-14T14:59:43.770Z,23136
2017-06-14T15:00:54.043Z,26528
2017-06-14T15:02:04.009Z,37248
2017-06-14T15:03:13.980Z,42752
2017-06-14T15:04:24.252Z,48000
2017-06-14T15:05:34.210Z,62240
2017-06-14T15:06:44.172Z,66112
2017-06-14T15:07:54.443Z,69984
2017-06-14T15:09:04.089Z,76512
2017-06-14T15:10:14.371Z,80288
2017-06-14T15:11:24.648Z,76480
2017-06-14T15:12:34.925Z,75296
2017-06-14T15:13:45.220Z,78272
2017-06-14T15:14:55.502Z,27552
2017-06-14T15:16:05.776Z,30240
2017-06-14T15:17:16.051Z,47040
2017-06-14T15:18:26.327Z,22560
2017-06-14T15:19:36.603Z,24288
2017-06-14T15:20:46.574Z,49440
2017-06-14T15:21:56.851Z,57120
2017-06-14T15:23:06.503Z,60224
2017-06-14T15:24:16.472Z,35040
2017-06-14T15:25:26.754Z,81792
2017-06-14T15:26:37.037Z,90784
2017-06-14T15:27:47.317Z,94816
2017-06-14T15:28:57.595Z,95296
2017-06-14T15:30:07.871Z,98752
2017-06-14T15:31:17.835Z,98496